Historyczne dane pomiarowe

Dodano dane terminowe – wersja testowa.

Dane z okresu 1951-2019

Wersja bazy: 1.34 [2019-03-16, lista zmian], aktualizacja planowana na 2019-04-15

Dane meteo z obszaru Polski uzyskane na podstawie danych udostępnionych przez Instytut Meteorologii i Gospodarki Wodnej – Państwowy Instytut Badawczy.

 

Wybierz Datę:    

       

TemperaturaWilgotnośćWiatrCiśnienieOpadyŚniegCzas trwania zjawisk
 Stacja t tx tn tng RH VA  wxwx mslp ppp RRR   cm mm wxwxwxwxwxwxwx
1994-08-14 14.7 19.5 10.0 9.7 72.5- 6.3 7.0---- 0.0------------
1994-08-13 16.5 21.5 14.5 10.7 90.0- 7.7 3.3---- 13.8------------
1994-08-12 18.9 24.0 13.1 9.2 70.8- 5.0 2.0---- 0.0------------
1994-08-11 19.2 23.5 11.1 7.7 69.5- 4.0 2.0---- 0.0------------
1994-08-10 19.9 25.0 15.2 12.2 76.5- 4.0 2.7---- 0.0------------
1994-08-09 18.1 23.5 14.2 10.2 91.0- 6.7 2.7---- 34.2------------
1994-08-08 18.0 25.0 15.2 10.7 86.8- 8.0 1.7---- 1.8------------
1994-08-07 24.2 29.0 18.3 13.8 64.8- 2.3 3.0---- 0.0------------
1994-08-06 25.6 32.5 16.2 12.7 61.8- 1.7 1.0---- 0.0------------
1994-08-05 24.9 31.5 15.2 12.7 67.5- 1.7 0.0---- 0.0------------
1994-08-04 24.0 29.0 17.2 15.3 74.5- 5.0 2.0---- 0.0------------
1994-08-03 21.7 29.0 17.2 11.7 83.5- 8.0 1.7---- 3.5------------
1994-08-02 26.4 33.0 17.8 15.3 65.3- 2.0 0.7---- 0.0------------
1994-08-01 25.7 35.0 17.8 14.3 58.0- 4.3 3.0---- 6.9------------
1994-07-31 24.5 35.2 17.8 14.4 70.3- 1.7 0.7---- 0.0------------
1994-07-30 24.7 36.6 16.1 13.6 66.5- 1.3 1.3---- 0.0------------
1994-07-29 23.8 33.4 16.7 13.2 59.3- 2.7 0.7---- 0.0------------
1994-07-28 25.0 34.2 15.7 12.7 68.3- 1.7 2.0---- 0.0------------
1994-07-27 23.7 34.6 13.2 10.1 67.8- 1.0 0.7---- 0.0------------
1994-07-26 21.0 30.8 12.4 11.7 72.0- 0.0 0.7---- 0.0------------
1994-07-25 26.1 36.0 14.9 12.3 69.5- 1.3 0.3---- 0.0------------
1994-07-24 22.3 33.6 14.5 11.5 65.3- 0.0 0.3---- 0.0------------
1994-07-23 22.3 29.4 13.6 10.2 66.3- 0.3 0.0---- 0.0------------
1994-07-22 25.8 28.5 20.1 9.7 68.8- 0.3 0.3---- 0.0------------
1994-07-21 24.6 30.8 16.7 13.0 66.5- 1.0 0.3---- 0.0------------
1994-07-20 26.1 29.6 19.9 12.7 68.8- 0.3 0.3---- 0.0------------
1994-07-19 23.0 27.6 12.6 11.7 69.5- 1.0 1.3---- 0.0------------
1994-07-18 19.5 24.4 14.3 8.1 80.5- 0.0 0.3---- 0.0------------
1994-07-17 23.0 29.0 17.8 12.2 72.8- 0.3 0.7---- 0.0------------
1994-07-16 24.4 31.2 13.6 6.7 60.5- 3.3 0.7---- 0.0------------
1994-07-15 23.4 30.0 14.2 6.7 64.0- 1.0 2.7---- 0.0------------
1994-07-14 24.8 30.0 16.2 10.2 67.0- 1.7 3.3---- 0.0------------
1994-07-13 23.9 29.5 14.7 8.6 64.8- 3.7 1.3---- 0.0------------
1994-07-12 22.9 29.5 12.6 7.2 69.0- 2.3 2.7---- 0.0------------
1994-07-11 22.4 27.0 14.2 8.7 69.8- 3.7 4.0---- 0.0------------
1994-07-10 20.4 26.0 12.6 8.2 71.5- 2.3 5.7---- 0.0------------
1994-07-09 13.8 17.5 8.6 4.7 93.0- 7.7 3.0---- 2.4------------
1994-07-08 16.4 22.5 11.1 5.2 75.0- 5.0 4.0---- 6.8------------
1994-07-07 19.2 25.0 10.6 5.2 63.0- 2.3 4.0---- 0.0------------
1994-07-06 18.4 23.5 7.6 3.7 69.0- 4.0 1.0---- 0.0------------
1994-07-05 18.7 23.2 10.6 6.2 66.0- 2.0 4.3---- 0.0------------
1994-07-04 18.7 24.5 10.0 5.2 70.5- 3.3 2.0---- 0.0------------
1994-07-03 16.8 23.0 8.6 4.2 69.8- 1.7 2.0---- 0.0------------
1994-07-02 16.0 21.5 9.1 6.7 67.8- 0.3 4.0---- 0.0------------
1994-07-01 17.6 22.5 10.0 6.2 67.8- 2.0 3.7---- 0.0------------
1994-06-30 19.4 28.0 12.6 10.2 72.5- 2.7 2.3---- 0.0------------
1994-06-29 20.5 27.0 10.6 8.9 72.3- 1.0 0.3---- 0.0------------
1994-06-28 20.6 29.6 11.6 8.1 71.3- 0.0 0.3---- 0.0------------
1994-06-27 24.0 28.8 17.1 9.5 67.3- 0.3 0.7---- 0.0------------
1994-06-26 18.9 29.0 9.2 4.9 66.5- 1.0 1.3---- 0.0------------
1994-06-25 14.8 21.6 10.3 6.7 73.3- 1.7 3.3---- 0.0------------
1994-06-24 14.8 20.2 11.6 5.2 63.5- 0.7 11.3---- 0.0------------
1994-06-23 14.1 18.6 10.8 6.3 62.0- 1.7 11.7---- 0.0------------
1994-06-22 14.0 17.8 9.2 5.7 78.8- 3.3 13.3---- 0.0------------
1994-06-21 14.9 19.6 6.6 5.3 69.0- 1.3 3.0---- 0.0------------
1994-06-20 14.7 17.6 10.0 6.7 72.3- 3.7 1.3---- 0.0------------
1994-06-19 13.1 16.4 10.0 7.7 92.0- 4.0 3.7---- 0.0------------
1994-06-18 10.7 17.0 3.7 1.5 71.8- 2.7 3.0---- 0.0------------
1994-06-17 11.0 14.2 6.1 2.1 80.8- 3.0 5.7---- 0.0------------
1994-06-16 11.3 16.5 6.6 1.7 78.8- 5.3 5.7---- 0.0------------
355.5 ms

 

Źródłem pochodzenia danych jest Instytut Meteorologii i Gospodarki Wodnej – Państwowy Instytut Badawczy. Dane Instytutu Meteorologii i Gospodarki Wodnej – Państwowego Instytutu Badawczego zostały przetworzone.

Dane źródłowe można odnaleźć na stronie https://dane.imgw.pl